createdAt,value
2022-11-20T00:00:58.999Z,7.88
2022-11-20T00:03:27.187Z,7.91
2022-11-20T00:05:54.879Z,7.91
2022-11-20T00:08:23.940Z,7.85
2022-11-20T00:10:51.689Z,7.81
2022-11-20T00:13:19.411Z,7.84
2022-11-20T00:15:47.247Z,7.84
2022-11-20T00:18:15.031Z,7.83
2022-11-20T00:20:42.753Z,7.85
2022-11-20T00:23:10.452Z,7.78
2022-11-20T00:25:39.546Z,7.68
2022-11-20T00:28:07.439Z,7.81
2022-11-20T00:30:35.201Z,7.83
2022-11-20T00:33:02.950Z,7.84
2022-11-20T00:35:30.753Z,7.64
2022-11-20T00:37:58.451Z,7.74
2022-11-20T00:40:26.192Z,7.56
2022-11-20T00:42:55.325Z,7.80
2022-11-20T00:45:23.097Z,7.60
2022-11-20T00:47:50.828Z,7.73
2022-11-20T00:50:18.668Z,7.76
2022-11-20T00:52:46.431Z,7.79
2022-11-20T00:55:14.245Z,7.67
2022-11-20T00:57:42.021Z,7.75
2022-11-20T01:00:12.187Z,7.73
2022-11-20T01:02:39.942Z,7.74
2022-11-20T01:05:08.101Z,7.72
2022-11-20T01:07:35.851Z,7.48
2022-11-20T01:10:04.299Z,7.69
2022-11-20T01:12:32.018Z,7.65
2022-11-20T01:14:59.737Z,7.67
2022-11-20T01:17:28.784Z,7.60
2022-11-20T01:19:56.590Z,7.71
2022-11-20T01:22:24.428Z,7.38
2022-11-20T01:24:52.203Z,7.73
2022-11-20T01:27:19.948Z,7.66
2022-11-20T01:29:47.751Z,7.71
2022-11-20T01:32:15.601Z,7.74
2022-11-20T01:34:44.691Z,7.75
2022-11-20T01:37:12.474Z,7.73
2022-11-20T01:39:40.244Z,7.75
2022-11-20T01:42:27.283Z,6.89
2022-11-20T01:44:58.264Z,7.69
2022-11-20T01:47:37.426Z,7.67
2022-11-20T01:50:13.619Z,7.64
2022-11-20T01:52:45.068Z,7.55
2022-11-20T01:55:17.013Z,7.46
2022-11-20T01:57:47.610Z,7.73
2022-11-20T02:00:18.252Z,7.72
2022-11-20T02:02:50.229Z,7.55
2022-11-20T02:05:26.077Z,7.56
2022-11-20T02:07:56.363Z,7.72
2022-11-20T02:10:24.105Z,7.69
2022-11-20T02:13:09.653Z,7.70
2022-11-20T02:15:37.473Z,7.72
2022-11-20T02:18:06.438Z,7.61
2022-11-20T02:20:35.621Z,7.72
2022-11-20T02:23:10.137Z,7.72
2022-11-20T02:25:40.525Z,7.75
2022-11-20T02:28:08.362Z,7.72
2022-11-20T02:30:36.074Z,7.76
2022-11-20T02:33:03.812Z,7.78
2022-11-20T02:35:45.974Z,7.76
2022-11-20T02:38:14.012Z,7.75
2022-11-20T02:40:43.240Z,7.73
2022-11-20T02:43:11.537Z,7.70
2022-11-20T02:45:39.518Z,7.71
2022-11-20T02:48:08.634Z,7.74
2022-11-20T02:50:40.021Z,7.67
2022-11-20T02:53:08.617Z,7.67
2022-11-20T02:55:37.136Z,7.68
2022-11-20T02:58:06.285Z,7.67
2022-11-20T03:00:34.486Z,7.28
2022-11-20T03:03:02.206Z,7.69
2022-11-20T03:05:30.024Z,7.67
2022-11-20T03:07:57.736Z,7.66
2022-11-20T03:10:25.468Z,7.68
2022-11-20T03:12:55.314Z,7.63
2022-11-20T03:15:25.087Z,7.60
2022-11-20T03:17:55.665Z,7.38
2022-11-20T03:20:23.459Z,7.64
2022-11-20T03:22:51.209Z,7.10
2022-11-20T03:25:18.961Z,7.57
2022-11-20T03:27:46.809Z,7.57
2022-11-20T03:30:15.116Z,7.54
2022-11-20T03:32:44.439Z,7.46
2022-11-20T03:35:12.138Z,7.54
2022-11-20T03:37:39.962Z,7.49
2022-11-20T03:40:08.897Z,7.52
2022-11-20T03:42:48.578Z,7.55
2022-11-20T03:45:18.105Z,7.53
2022-11-20T03:47:48.109Z,7.51
2022-11-20T03:50:17.109Z,7.44
2022-11-20T03:52:44.858Z,7.51
2022-11-20T03:55:12.568Z,7.53
2022-11-20T03:57:40.319Z,7.51
2022-11-20T04:00:09.100Z,7.48
2022-11-20T04:02:36.847Z,7.50
2022-11-20T04:05:06.584Z,7.51
2022-11-20T04:07:36.399Z,7.49
2022-11-20T04:10:04.845Z,7.52
2022-11-20T04:12:34.506Z,7.40
2022-11-20T04:15:02.272Z,7.41
2022-11-20T04:17:30.019Z,7.44
2022-11-20T04:19:57.749Z,7.47
2022-11-20T04:22:26.985Z,7.45
2022-11-20T04:24:54.767Z,7.38
2022-11-20T04:27:22.836Z,7.25
2022-11-20T04:29:50.555Z,7.15
2022-11-20T04:32:18.324Z,7.39
2022-11-20T04:34:46.040Z,7.39
2022-11-20T04:37:13.785Z,7.40
2022-11-20T04:39:43.053Z,7.40
2022-11-20T04:42:29.076Z,7.45
2022-11-20T04:44:57.117Z,7.43
2022-11-20T04:47:24.878Z,7.41
2022-11-20T04:49:52.804Z,7.40
2022-11-20T04:52:20.719Z,7.40
2022-11-20T04:54:49.948Z,7.44
2022-11-20T04:57:17.654Z,7.42
2022-11-20T04:59:45.404Z,7.40
2022-11-20T05:02:13.656Z,7.42
2022-11-20T05:04:41.362Z,7.30
2022-11-20T05:07:09.162Z,7.44
2022-11-20T05:09:36.952Z,7.42
2022-11-20T05:12:06.537Z,7.48
2022-11-20T05:14:34.344Z,7.42
2022-11-20T05:17:02.249Z,7.49
2022-11-20T05:19:29.992Z,7.49
2022-11-20T05:21:58.600Z,7.40
2022-11-20T05:24:26.325Z,7.48
2022-11-20T05:26:54.057Z,7.36
2022-11-20T05:29:23.468Z,7.48
2022-11-20T05:31:51.265Z,7.54
2022-11-20T05:34:18.949Z,7.53
2022-11-20T05:36:46.652Z,7.52
2022-11-20T05:39:14.335Z,7.51
2022-11-20T05:41:42.061Z,7.51
2022-11-20T05:44:12.744Z,7.50
2022-11-20T05:46:41.860Z,7.49
2022-11-20T05:49:09.597Z,7.51
2022-11-20T05:51:37.276Z,7.48
2022-11-20T05:54:05.004Z,7.44
2022-11-20T05:56:33.571Z,7.43
2022-11-20T05:59:01.291Z,7.37
2022-11-20T06:01:29.034Z,7.34
2022-11-20T06:03:58.166Z,7.39
2022-11-20T06:06:26.948Z,7.23
2022-11-20T06:08:54.825Z,7.26
2022-11-20T06:11:22.896Z,7.33
2022-11-20T06:13:53.620Z,7.23
2022-11-20T06:16:22.718Z,7.27
2022-11-20T06:18:50.763Z,7.32
2022-11-20T06:21:22.170Z,7.28
2022-11-20T06:23:50.928Z,7.23
2022-11-20T06:26:20.813Z,7.14
2022-11-20T06:28:48.807Z,7.16
2022-11-20T06:31:18.767Z,7.10
2022-11-20T06:33:50.322Z,7.04
2022-11-20T06:36:24.214Z,7.03
2022-11-20T06:38:52.137Z,6.94
2022-11-20T06:41:22.257Z,6.94
2022-11-20T06:43:50.656Z,6.96
2022-11-20T06:46:19.712Z,6.95
2022-11-20T06:48:48.053Z,6.87
2022-11-20T06:51:16.176Z,6.83
2022-11-20T06:53:45.653Z,6.86
2022-11-20T06:56:13.378Z,6.87
2022-11-20T06:58:41.559Z,6.85
2022-11-20T07:01:11.784Z,6.78
2022-11-20T07:03:40.335Z,6.83
2022-11-20T07:06:11.728Z,6.66
2022-11-20T07:08:39.497Z,6.73
2022-11-20T07:11:09.100Z,6.76
2022-11-20T07:13:36.941Z,6.78
2022-11-20T07:16:06.843Z,6.71
2022-11-20T07:18:35.149Z,6.49
2022-11-20T07:21:08.919Z,6.76
2022-11-20T07:23:36.796Z,6.72
2022-11-20T07:26:05.926Z,6.77
2022-11-20T07:28:35.730Z,6.77
2022-11-20T07:31:04.590Z,6.72
2022-11-20T07:33:32.486Z,6.76
2022-11-20T07:36:00.651Z,6.78
2022-11-20T07:38:28.433Z,6.78
2022-11-20T07:40:57.197Z,6.82
2022-11-20T07:43:26.111Z,6.84
2022-11-20T07:45:57.060Z,6.89
2022-11-20T07:48:25.040Z,6.88
2022-11-20T07:50:55.975Z,6.91
2022-11-20T07:53:23.793Z,6.95
2022-11-20T07:55:53.279Z,7.02
2022-11-20T07:58:21.225Z,7.03
2022-11-20T08:00:49.200Z,7.11
2022-11-20T08:03:24.421Z,7.18
2022-11-20T08:05:52.954Z,7.16
2022-11-20T08:08:20.824Z,7.16
2022-11-20T08:10:48.580Z,7.14
2022-11-20T08:13:33.849Z,7.27
2022-11-20T08:16:01.606Z,7.29
2022-11-20T08:18:32.500Z,7.31
2022-11-20T08:21:03.201Z,7.22
2022-11-20T08:23:31.161Z,7.31
2022-11-20T08:25:58.895Z,7.30
2022-11-20T08:28:26.607Z,7.31
2022-11-20T08:31:00.468Z,7.38
2022-11-20T08:33:29.831Z,7.34
2022-11-20T08:36:00.961Z,7.42
2022-11-20T08:38:28.760Z,7.41
2022-11-20T08:41:16.702Z,7.44
2022-11-20T08:43:44.574Z,7.45
2022-11-20T08:46:12.793Z,7.49
2022-11-20T08:48:43.413Z,7.49
2022-11-20T08:51:13.911Z,7.55
2022-11-20T08:53:42.155Z,7.55
2022-11-20T08:56:12.075Z,7.61
2022-11-20T08:59:02.304Z,7.56
2022-11-20T09:01:28.633Z,7.62
2022-11-20T09:04:00.720Z,7.62
2022-11-20T09:06:31.600Z,7.67
2022-11-20T09:09:02.121Z,7.66
2022-11-20T09:11:34.214Z,7.64
2022-11-20T09:14:03.747Z,7.59
2022-11-20T09:16:31.808Z,7.68
2022-11-20T09:19:28.589Z,7.70
2022-11-20T09:21:58.269Z,7.63
2022-11-20T09:24:40.666Z,7.80
2022-11-20T09:27:08.754Z,7.75
2022-11-20T09:29:36.557Z,7.86
2022-11-20T09:32:04.369Z,7.91
2022-11-20T09:34:33.590Z,7.96
2022-11-20T09:37:04.530Z,8.03
2022-11-20T09:39:34.680Z,8.07
2022-11-20T09:42:23.000Z,8.13
2022-11-20T09:45:12.473Z,8.18
2022-11-20T09:47:53.136Z,8.23
2022-11-20T09:50:33.009Z,8.21
2022-11-20T09:53:14.011Z,8.21
2022-11-20T09:55:42.339Z,8.22
2022-11-20T09:58:17.951Z,8.26
2022-11-20T10:00:46.544Z,8.25
2022-11-20T10:03:19.854Z,8.30
2022-11-20T10:05:53.212Z,8.30
2022-11-20T10:08:24.824Z,8.25
2022-11-20T10:10:58.755Z,8.25
2022-11-20T10:13:37.972Z,8.29
2022-11-20T10:16:19.071Z,8.34
2022-11-20T10:19:02.836Z,8.30
2022-11-20T10:21:43.347Z,8.28
2022-11-20T10:24:31.582Z,8.09
2022-11-20T10:27:16.477Z,8.11
2022-11-20T10:29:48.398Z,8.11
2022-11-20T10:32:21.587Z,8.11
2022-11-20T10:34:55.063Z,8.12
2022-11-20T10:37:26.407Z,8.06
2022-11-20T10:40:02.705Z,8.19
2022-11-20T10:42:34.699Z,8.11
2022-11-20T10:45:15.553Z,8.17
2022-11-20T10:47:43.705Z,8.04
2022-11-20T10:50:21.844Z,8.12
2022-11-20T10:53:01.031Z,8.30
2022-11-20T10:55:37.933Z,8.41
2022-11-20T10:58:16.190Z,8.46
2022-11-20T11:00:44.168Z,8.41
2022-11-20T11:03:24.587Z,8.41
2022-11-20T11:06:00.583Z,8.48
2022-11-20T11:08:36.350Z,8.41
2022-11-20T11:11:18.041Z,8.41
2022-11-20T11:13:45.910Z,8.40
2022-11-20T11:16:23.569Z,8.38
2022-11-20T11:18:51.804Z,8.28
2022-11-20T11:21:26.093Z,8.31
2022-11-20T11:24:19.621Z,8.29
2022-11-20T11:26:59.902Z,8.21
2022-11-20T11:29:30.413Z,8.36
2022-11-20T11:32:07.444Z,8.20
2022-11-20T11:34:35.588Z,8.35
2022-11-20T11:37:05.276Z,8.34
2022-11-20T11:39:35.674Z,8.28
2022-11-20T11:42:03.712Z,8.31
2022-11-20T11:44:51.520Z,8.21
2022-11-20T11:47:25.831Z,8.34
2022-11-20T11:50:03.479Z,8.40
2022-11-20T11:52:33.250Z,8.44
2022-11-20T11:55:10.219Z,8.49
2022-11-20T11:57:45.623Z,8.48
2022-11-20T12:00:16.278Z,8.53
2022-11-20T12:02:56.190Z,8.46
2022-11-20T12:05:26.897Z,8.45
2022-11-20T12:07:59.872Z,8.55
2022-11-20T12:10:43.295Z,8.59
2022-11-20T12:13:22.644Z,8.59
2022-11-20T12:15:50.661Z,8.59
2022-11-20T12:18:21.145Z,8.51
2022-11-20T12:20:59.630Z,8.49
2022-11-20T12:23:36.642Z,8.49
2022-11-20T12:26:16.062Z,8.47
2022-11-20T12:29:00.185Z,8.50
2022-11-20T12:31:52.421Z,8.43
2022-11-20T12:34:41.862Z,8.44
2022-11-20T12:37:18.396Z,8.41
2022-11-20T12:39:50.941Z,8.51
2022-11-20T12:43:07.679Z,8.49
2022-11-20T12:46:07.576Z,8.36
2022-11-20T12:48:51.774Z,8.49
2022-11-20T12:51:34.229Z,8.53
2022-11-20T12:54:26.338Z,8.49
2022-11-20T12:57:04.203Z,8.51
2022-11-20T12:59:58.357Z,8.59
2022-11-20T13:02:32.535Z,8.57
2022-11-20T13:05:18.015Z,8.59
2022-11-20T13:07:47.012Z,8.65
2022-11-20T13:10:20.804Z,8.72
2022-11-20T13:12:53.715Z,8.78
2022-11-20T13:15:38.549Z,8.68
2022-11-20T13:18:11.554Z,8.66
2022-11-20T13:20:45.328Z,8.68
2022-11-20T13:23:25.786Z,8.65
2022-11-20T13:26:04.392Z,8.66
2022-11-20T13:28:35.422Z,8.66
2022-11-20T13:31:07.878Z,8.67
2022-11-20T13:33:38.674Z,8.60
2022-11-20T13:36:11.730Z,8.68
2022-11-20T13:38:46.076Z,8.70
2022-11-20T13:41:34.872Z,8.72
2022-11-20T13:44:13.216Z,8.75
2022-11-20T13:46:45.459Z,8.67
2022-11-20T13:49:20.625Z,8.74
2022-11-20T13:51:51.635Z,8.75
2022-11-20T13:54:53.597Z,8.77
2022-11-20T13:57:51.812Z,8.68
2022-11-20T14:00:21.938Z,8.73
2022-11-20T14:03:03.004Z,8.77
2022-11-20T14:05:34.361Z,8.77
2022-11-20T14:08:06.008Z,8.79
2022-11-20T14:10:33.990Z,8.80
2022-11-20T14:13:12.930Z,8.80
2022-11-20T14:15:44.796Z,8.77
2022-11-20T14:18:16.840Z,8.79
2022-11-20T14:20:45.170Z,8.64
2022-11-20T14:23:13.270Z,8.80
2022-11-20T14:25:45.133Z,8.74
2022-11-20T14:28:25.353Z,8.78
2022-11-20T14:30:53.326Z,8.81
2022-11-20T14:33:25.795Z,8.82
2022-11-20T14:35:55.789Z,8.80
2022-11-20T14:38:27.186Z,8.77
2022-11-20T14:40:54.899Z,8.73
2022-11-20T14:43:26.255Z,8.72
2022-11-20T14:46:02.316Z,8.59
2022-11-20T14:48:36.005Z,8.70
2022-11-20T14:51:03.910Z,8.66
2022-11-20T14:53:31.657Z,8.70
2022-11-20T14:56:01.305Z,8.60
2022-11-20T14:58:30.830Z,8.75
2022-11-20T15:01:00.535Z,8.69
2022-11-20T15:03:34.993Z,8.71
2022-11-20T15:06:03.142Z,8.68
2022-11-20T15:08:31.130Z,8.68
2022-11-20T15:10:59.517Z,8.75
2022-11-20T15:13:31.532Z,8.75
2022-11-20T15:16:00.882Z,8.77
2022-11-20T15:18:34.854Z,8.80
2022-11-20T15:21:06.412Z,8.77
2022-11-20T15:23:34.197Z,8.74
2022-11-20T15:26:02.011Z,8.77
2022-11-20T15:28:33.142Z,8.78
2022-11-20T15:31:01.652Z,8.68
2022-11-20T15:33:29.424Z,8.81
2022-11-20T15:35:57.142Z,8.84
2022-11-20T15:38:26.305Z,8.76
2022-11-20T15:40:54.400Z,8.77
2022-11-20T15:43:22.192Z,8.78
2022-11-20T15:45:51.944Z,8.24
2022-11-20T15:48:22.020Z,8.44
2022-11-20T15:50:54.903Z,8.75
2022-11-20T15:53:22.680Z,8.75
2022-11-20T15:55:51.923Z,8.75
2022-11-20T15:58:19.684Z,8.73
2022-11-20T16:00:48.045Z,8.61
2022-11-20T16:03:17.378Z,8.70
2022-11-20T16:05:45.809Z,8.63
2022-11-20T16:08:13.753Z,8.72
2022-11-20T16:10:41.928Z,8.59
2022-11-20T16:13:34.077Z,8.71
2022-11-20T16:16:06.381Z,8.72
2022-11-20T16:18:35.033Z,8.49
2022-11-20T16:21:03.476Z,8.74
2022-11-20T16:23:31.418Z,8.72
2022-11-20T16:25:59.332Z,8.73
2022-11-20T16:28:28.395Z,8.72
2022-11-20T16:30:56.138Z,8.73
2022-11-20T16:33:23.845Z,8.62
2022-11-20T16:35:51.605Z,8.70
2022-11-20T16:38:19.371Z,8.68
2022-11-20T16:40:47.094Z,8.52
2022-11-20T16:43:16.029Z,8.61
2022-11-20T16:45:46.501Z,8.76
2022-11-20T16:48:16.047Z,8.62
2022-11-20T16:50:49.514Z,8.78
2022-11-20T16:53:17.561Z,8.79
2022-11-20T16:55:45.720Z,8.79
2022-11-20T16:58:13.611Z,8.81
2022-11-20T17:00:45.630Z,8.80
2022-11-20T17:03:18.091Z,8.77
2022-11-20T17:05:45.852Z,8.32
2022-11-20T17:08:13.606Z,8.71
2022-11-20T17:10:42.506Z,8.75
2022-11-20T17:13:10.258Z,8.75
2022-11-20T17:15:38.461Z,8.78
2022-11-20T17:18:06.311Z,8.77
2022-11-20T17:20:35.460Z,8.78
2022-11-20T17:23:03.162Z,8.77
2022-11-20T17:25:34.300Z,8.78
2022-11-20T17:28:02.060Z,8.68
2022-11-20T17:30:29.920Z,8.34
2022-11-20T17:32:57.658Z,8.75
2022-11-20T17:35:25.461Z,8.80
2022-11-20T17:37:54.594Z,8.73
2022-11-20T17:40:27.160Z,8.58
2022-11-20T17:42:55.617Z,8.79
2022-11-20T17:45:23.348Z,8.72
2022-11-20T17:47:51.174Z,8.70
2022-11-20T17:50:19.026Z,8.72
2022-11-20T17:52:46.869Z,8.76
2022-11-20T17:55:17.165Z,8.46
2022-11-20T17:57:53.197Z,8.75
2022-11-20T18:00:22.298Z,8.74
2022-11-20T18:02:50.463Z,8.73
2022-11-20T18:05:18.407Z,8.71
2022-11-20T18:07:46.292Z,8.66
2022-11-20T18:10:14.150Z,8.70
2022-11-20T18:12:43.943Z,8.71
2022-11-20T18:15:11.794Z,8.81
2022-11-20T18:17:39.646Z,8.81
2022-11-20T18:22:57.055Z,8.62
2022-11-20T18:25:24.907Z,8.59
2022-11-20T18:27:54.042Z,8.81
2022-11-20T18:30:22.149Z,8.80
2022-11-20T18:32:50.130Z,8.73
2022-11-20T18:35:18.136Z,8.74
2022-11-20T18:37:45.956Z,8.73
2022-11-20T18:40:14.930Z,8.75
2022-11-20T18:43:00.247Z,8.56
2022-11-20T18:45:30.364Z,8.80
2022-11-20T18:47:58.220Z,8.91
2022-11-20T18:50:26.056Z,8.81
2022-11-20T18:52:54.092Z,8.92
2022-11-20T18:55:25.074Z,8.90
2022-11-20T18:57:54.013Z,8.91
2022-11-20T19:00:21.916Z,8.93
2022-11-20T19:02:54.091Z,8.71
2022-11-20T19:05:21.910Z,8.95
2022-11-20T19:07:49.654Z,8.89
2022-11-20T19:10:20.283Z,8.96
2022-11-20T19:12:48.065Z,9.02
2022-11-20T19:15:16.024Z,8.89
2022-11-20T19:17:43.785Z,9.01
2022-11-20T19:20:13.577Z,9.02
2022-11-20T19:22:41.332Z,9.07
2022-11-20T19:25:09.675Z,9.05
2022-11-20T19:27:37.383Z,9.09
2022-11-20T19:30:06.012Z,9.09
2022-11-20T19:32:35.245Z,9.10
2022-11-20T19:35:03.589Z,9.08
2022-11-20T19:37:35.174Z,9.01
2022-11-20T19:40:04.697Z,9.15
2022-11-20T19:42:32.756Z,9.22
2022-11-20T19:45:00.544Z,9.25
2022-11-20T19:47:52.779Z,9.26
2022-11-20T19:50:16.876Z,9.14
2022-11-20T19:52:45.994Z,9.13
2022-11-20T19:55:13.833Z,9.13
2022-11-20T19:57:41.559Z,9.10
2022-11-20T20:00:10.605Z,9.12
2022-11-20T20:02:38.429Z,9.16
2022-11-20T20:05:07.027Z,9.02
2022-11-20T20:07:34.865Z,9.07
2022-11-20T20:10:04.208Z,9.11
2022-11-20T20:12:31.958Z,9.13
2022-11-20T20:14:59.706Z,8.97
2022-11-20T20:17:27.544Z,9.14
2022-11-20T20:19:55.265Z,8.77
2022-11-20T20:22:23.001Z,9.03
2022-11-20T20:24:52.010Z,9.00
2022-11-20T20:27:21.279Z,9.17
2022-11-20T20:29:49.096Z,9.24
2022-11-20T20:32:16.881Z,9.17
2022-11-20T20:34:44.619Z,9.17
2022-11-20T20:37:12.377Z,9.13
2022-11-20T20:39:40.205Z,9.21
2022-11-20T20:42:07.968Z,9.21
2022-11-20T20:44:54.696Z,9.24
2022-11-20T20:47:22.431Z,9.25
2022-11-20T20:49:50.266Z,9.29
2022-11-20T20:52:17.984Z,9.13
2022-11-20T20:54:45.857Z,9.24
2022-11-20T20:57:13.799Z,9.25
2022-11-20T20:59:42.870Z,9.24
2022-11-20T21:02:11.783Z,9.25
2022-11-20T21:04:39.570Z,9.28
2022-11-20T21:07:07.386Z,9.20
2022-11-20T21:09:35.138Z,9.21
2022-11-20T21:12:02.841Z,9.19
2022-11-20T21:14:30.601Z,9.28
2022-11-20T21:16:59.698Z,9.15
2022-11-20T21:19:27.760Z,9.23
2022-11-20T21:22:00.170Z,9.13
2022-11-20T21:24:28.705Z,8.98
2022-11-20T21:26:57.337Z,9.27
2022-11-20T21:29:27.187Z,9.23
2022-11-20T21:31:55.556Z,9.24
2022-11-20T21:34:25.746Z,9.33
2022-11-20T21:36:54.184Z,9.33
2022-11-20T21:39:22.924Z,9.27
2022-11-20T21:41:50.740Z,9.30
2022-11-20T21:44:33.805Z,9.24
2022-11-20T21:47:01.653Z,9.17
2022-11-20T21:49:30.720Z,9.21
2022-11-20T21:51:58.448Z,9.24
2022-11-20T21:54:26.578Z,9.25
2022-11-20T21:56:54.571Z,9.24
2022-11-20T21:59:22.803Z,9.23
2022-11-20T22:01:50.853Z,9.17
2022-11-20T22:04:18.579Z,9.20
2022-11-20T22:06:48.766Z,9.06
2022-11-20T22:09:16.677Z,9.04
2022-11-20T22:11:44.487Z,8.77
2022-11-20T22:14:24.083Z,8.98
2022-11-20T22:16:53.661Z,9.01
2022-11-20T22:19:22.608Z,8.86
2022-11-20T22:21:52.074Z,8.87
2022-11-20T22:24:22.272Z,8.96
2022-11-20T22:26:50.828Z,9.00
2022-11-20T22:29:20.857Z,8.99
2022-11-20T22:31:48.876Z,8.99
2022-11-20T22:34:16.641Z,9.05
2022-11-20T22:36:44.609Z,9.09
2022-11-20T22:39:14.474Z,9.02
2022-11-20T22:41:42.224Z,9.03
2022-11-20T22:44:10.237Z,8.98
2022-11-20T22:46:38.809Z,9.02
2022-11-20T22:49:08.527Z,9.13
2022-11-20T22:51:38.660Z,9.05
2022-11-20T22:54:06.818Z,9.13
2022-11-20T22:56:36.038Z,9.06
2022-11-20T22:59:04.021Z,9.08
2022-11-20T23:01:33.756Z,9.07
2022-11-20T23:04:03.597Z,9.03
2022-11-20T23:06:34.133Z,9.12
2022-11-20T23:09:02.386Z,8.99
2022-11-20T23:11:31.977Z,8.99
2022-11-20T23:14:02.776Z,8.91
2022-11-20T23:16:32.225Z,8.91
2022-11-20T23:19:01.517Z,8.84
2022-11-20T23:21:29.544Z,8.92
2022-11-20T23:23:59.041Z,8.88
2022-11-20T23:26:28.830Z,8.82
2022-11-20T23:28:58.480Z,8.76
2022-11-20T23:31:29.861Z,8.89
2022-11-20T23:33:58.248Z,8.85
2022-11-20T23:36:26.132Z,8.81
2022-11-20T23:38:53.958Z,8.90
2022-11-20T23:41:21.706Z,8.89
2022-11-20T23:43:49.488Z,8.93
2022-11-20T23:46:17.279Z,8.91
2022-11-20T23:48:46.634Z,8.86
2022-11-20T23:51:15.156Z,8.84
2022-11-20T23:53:42.917Z,8.84
2022-11-20T23:56:14.240Z,8.84
2022-11-20T23:58:42.618Z,8.78
